Time;durP1;ratioP1;P1;durP2;ratioP2;P2;SDS_P1;SDS_P2;PMS_P1;PMS_P2;Temp;Humidity;BMP_temperature;BMP_pressure;BME280_temperature;BME280_humidity;BME280_pressure;Samples;Min_cycle;Max_cycle;Signal;HPM_P1;HPM_P2
2023/06/15 06:40:43;;;;;;;5.43;2.40;;;17.40;99.90;;;;;;5020845;28;20118;-73
2023/06/15 06:43:09;;;;;;;4.50;2.67;;;17.50;99.90;;;;;;5024472;28;20049;-73
2023/06/15 06:45:34;;;;;;;4.50;2.60;;;17.60;99.90;;;;;;5029502;28;20052;-72
2023/06/15 06:48:00;;;;;;;3.80;2.17;;;17.70;99.90;;;;;;5032997;28;20041;-73
2023/06/15 06:50:26;;;;;;;8.65;2.45;;;17.70;99.90;;;;;;5025472;28;20474;-73
2023/06/15 06:52:51;;;;;;;6.15;2.28;;;17.80;99.90;;;;;;5025649;28;20117;-74
2023/06/15 06:55:17;;;;;;;4.55;2.78;;;17.80;99.90;;;;;;5026974;28;20033;-74
2023/06/15 06:57:43;;;;;;;6.00;3.13;;;18.00;99.90;;;;;;5026135;28;20511;-73
2023/06/15 07:00:10;;;;;;;4.90;2.65;;;18.10;99.90;;;;;;5026240;28;20041;-74
2023/06/15 07:02:36;;;;;;;4.35;2.17;;;18.30;99.90;;;;;;5025097;28;20049;-74
2023/06/15 07:05:02;;;;;;;4.75;2.33;;;18.50;99.90;;;;;;5035058;28;20405;-74
2023/06/15 07:07:27;;;;;;;4.22;2.42;;;18.70;99.90;;;;;;5027370;28;20067;-75
2023/06/15 07:09:53;;;;;;;6.43;2.60;;;18.90;99.90;;;;;;5028622;28;20033;-74
2023/06/15 07:12:19;;;;;;;3.83;2.40;;;19.30;99.90;;;;;;5024608;28;20045;-75
2023/06/15 07:14:45;;;;;;;4.45;2.42;;;19.70;99.90;;;;;;5023901;28;20047;-75
2023/06/15 07:17:11;;;;;;;5.57;2.70;;;19.80;99.90;;;;;;5024656;28;20045;-75
2023/06/15 07:19:36;;;;;;;5.63;2.38;;;20.00;99.90;;;;;;5032988;28;20060;-75
2023/06/15 07:22:02;;;;;;;5.55;2.88;;;20.10;99.90;;;;;;5030691;28;20108;-74
2023/06/15 07:24:28;;;;;;;5.30;3.03;;;20.20;99.90;;;;;;5033592;28;20061;-75
2023/06/15 07:26:53;;;;;;;4.05;2.20;;;20.40;99.90;;;;;;5032788;28;20598;-75
2023/06/15 07:29:19;;;;;;;5.60;2.75;;;20.70;99.90;;;;;;5038301;28;20033;-75
2023/06/15 07:31:46;;;;;;;5.55;2.60;;;21.20;99.90;;;;;;5029109;28;20043;-75
2023/06/15 07:34:12;;;;;;;5.80;2.67;;;21.80;99.90;;;;;;5033874;28;20151;-75
2023/06/15 07:36:37;;;;;;;4.82;2.83;;;22.50;99.90;;;;;;5028166;28;20125;-74
2023/06/15 07:39:03;;;;;;;4.45;2.45;;;23.10;99.90;;;;;;5034471;28;20029;-76
2023/06/15 07:41:29;;;;;;;4.93;2.67;;;23.60;99.30;;;;;;5030428;28;23018;-75
2023/06/15 07:43:55;;;;;;;4.38;2.78;;;24.00;98.70;;;;;;5031660;28;20196;-75
2023/06/15 07:46:20;;;;;;;3.83;2.58;;;23.70;98.40;;;;;;5032822;28;20064;-75
2023/06/15 07:48:46;;;;;;;5.53;2.70;;;23.80;98.60;;;;;;5027034;28;20048;-75
2023/06/15 07:51:12;;;;;;;5.05;2.75;;;23.10;99.60;;;;;;5033513;28;20403;-75
2023/06/15 07:53:38;;;;;;;3.72;2.63;;;23.50;99.90;;;;;;5036559;28;20045;-75
2023/06/15 07:56:04;;;;;;;4.47;2.65;;;23.60;99.90;;;;;;5039918;28;20051;-76
2023/06/15 07:58:30;;;;;;;4.68;2.70;;;23.40;99.80;;;;;;5038249;28;20029;-75
2023/06/15 08:00:56;;;;;;;5.10;2.95;;;23.50;99.90;;;;;;5038304;28;20356;-75
2023/06/15 08:03:22;;;;;;;4.40;2.60;;;23.50;99.90;;;;;;5032908;28;20524;-75
2023/06/15 08:05:47;;;;;;;4.35;2.72;;;23.50;99.80;;;;;;5031329;28;20217;-75
2023/06/15 08:08:13;;;;;;;4.05;2.40;;;23.20;99.90;;;;;;5032179;28;20084;-76
2023/06/15 08:10:39;;;;;;;5.03;2.75;;;23.40;99.70;;;;;;5030865;28;20033;-75
2023/06/15 08:13:06;;;;;;;3.80;2.42;;;23.60;99.70;;;;;;5034269;28;20459;-75
2023/06/15 08:15:33;;;;;;;6.13;2.90;;;23.20;99.40;;;;;;5036737;28;20030;-75
2023/06/15 08:17:59;;;;;;;4.40;2.80;;;22.90;99.90;;;;;;5035133;28;20037;-75
2023/06/15 08:20:26;;;;;;;7.88;3.10;;;22.80;99.90;;;;;;5033015;28;20037;-75
2023/06/15 08:22:51;;;;;;;4.47;2.50;;;22.80;99.90;;;;;;5032982;28;20052;-75
2023/06/15 08:25:17;;;;;;;6.60;2.42;;;23.20;99.80;;;;;;5028620;28;20396;-76
2023/06/15 08:27:43;;;;;;;4.60;2.92;;;23.30;99.20;;;;;;5032087;28;20138;-75
2023/06/15 08:30:09;;;;;;;5.18;2.80;;;23.20;99.30;;;;;;5033469;28;20049;-75
2023/06/15 08:32:35;;;;;;;5.68;3.10;;;23.50;99.50;;;;;;5032069;28;20040;-75
2023/06/15 08:35:01;;;;;;;4.75;2.72;;;23.80;98.90;;;;;;5035641;28;20386;-75
2023/06/15 08:37:27;;;;;;;4.35;2.95;;;23.90;99.20;;;;;;5026402;28;20032;-75
2023/06/15 08:39:52;;;;;;;6.18;2.55;;;23.60;99.10;;;;;;5033194;28;20288;-75
2023/06/15 08:42:23;;;;;;;4.25;2.95;;;23.40;99.50;;;;;;5033343;28;20044;-75
2023/06/15 08:44:52;;;;;;;5.28;2.85;;;23.90;99.40;;;;;;5025254;28;20036;-75
2023/06/15 08:47:18;;;;;;;4.85;2.72;;;24.30;98.40;;;;;;5029012;28;20064;-75
2023/06/15 08:49:44;;;;;;;4.90;2.88;;;24.30;98.30;;;;;;5031266;28;20067;-75
2023/06/15 08:52:12;;;;;;;6.85;2.28;;;23.90;98.20;;;;;;5035807;28;20029;-75
2023/06/15 08:54:42;;;;;;;5.95;2.60;;;23.90;99.10;;;;;;5032902;28;20070;-76
2023/06/15 08:57:08;;;;;;;3.90;2.45;;;23.90;97.40;;;;;;5031521;28;20563;-76
2023/06/15 08:59:33;;;;;;;5.45;2.53;;;24.40;97.80;;;;;;5031624;28;20049;-75
2023/06/15 09:02:02;;;;;;;5.22;2.22;;;24.30;96.30;;;;;;5036627;28;20522;-75
2023/06/15 09:04:29;;;;;;;5.75;3.00;;;24.30;97.20;;;;;;5032852;28;20057;-75
2023/06/15 09:06:57;;;;;;;9.85;2.58;;;24.50;96.80;;;;;;5033901;28;20121;-75
2023/06/15 09:09:23;;;;;;;4.20;2.72;;;24.30;97.40;;;;;;5033021;28;20047;-75
2023/06/15 09:11:48;;;;;;;5.65;3.08;;;24.30;98.00;;;;;;5030718;28;20064;-75
2023/06/15 09:14:14;;;;;;;5.68;2.53;;;24.40;98.00;;;;;;5030455;28;20052;-76
2023/06/15 09:16:41;;;;;;;6.32;3.00;;;24.40;97.40;;;;;;5031140;28;20064;-76
2023/06/15 09:19:13;;;;;;;4.88;2.72;;;24.40;97.70;;;;;;5028144;28;20045;-76
2023/06/15 09:21:49;;;;;;;4.60;2.83;;;24.40;97.20;;;;;;5031716;28;20440;-75
2023/06/15 09:24:16;;;;;;;11.48;3.35;;;23.90;97.60;;;;;;5031820;28;20040;-75
2023/06/15 09:26:44;;;;;;;9.52;3.45;;;24.50;98.50;;;;;;5029497;28;20034;-76
2023/06/15 09:29:14;;;;;;;4.97;3.03;;;24.60;98.20;;;;;;5021244;28;20072;-77
2023/06/15 09:31:43;;;;;;;6.05;3.05;;;24.60;97.40;;;;;;5032991;28;20107;-77
2023/06/15 09:34:10;;;;;;;5.25;3.05;;;25.00;97.60;;;;;;5029558;28;20048;-77
2023/06/15 09:36:41;;;;;;;8.25;3.38;;;25.50;96.80;;;;;;5034220;28;20121;-76
2023/06/15 09:39:11;;;;;;;4.80;2.80;;;25.60;96.10;;;;;;5031398;28;20201;-76
2023/06/15 09:42:00;;;;;;;6.18;3.08;;;25.70;96.70;;;;;;5031336;28;20041;-78
2023/06/15 09:44:26;;;;;;;6.43;3.42;;;26.10;96.10;;;;;;5033029;28;20049;-74
2023/06/15 09:46:56;;;;;;;5.93;3.45;;;26.00;96.20;;;;;;5029731;28;20098;-75
2023/06/15 09:49:26;;;;;;;4.85;3.00;;;26.10;97.80;;;;;;5029574;28;20041;-74
2023/06/15 09:51:54;;;;;;;4.97;3.03;;;25.90;97.40;;;;;;5031108;28;20033;-76
2023/06/15 09:54:21;;;;;;;4.97;2.92;;;25.80;97.20;;;;;;5038049;28;20073;-76
2023/06/15 09:56:52;;;;;;;3.75;2.50;;;25.30;95.80;;;;;;5033541;28;20132;-77
2023/06/15 09:59:19;;;;;;;7.97;3.35;;;25.40;96.80;;;;;;5035864;28;20663;-76
2023/06/15 10:01:47;;;;;;;5.85;3.33;;;25.80;97.30;;;;;;5042960;28;20917;-76
2023/06/15 10:04:14;;;;;;;4.30;2.88;;;25.50;95.50;;;;;;5037661;28;20032;-76
2023/06/15 10:06:44;;;;;;;5.55;3.00;;;25.70;96.70;;;;;;5039944;28;20064;-76
2023/06/15 10:09:11;;;;;;;7.10;2.78;;;25.60;96.50;;;;;;5038636;28;20667;-77
2023/06/15 10:11:41;;;;;;;5.18;3.30;;;25.80;95.90;;;;;;5037122;28;20087;-76
2023/06/15 10:14:14;;;;;;;5.40;2.95;;;25.90;97.00;;;;;;5029383;28;20529;-77
2023/06/15 10:16:41;;;;;;;5.50;3.15;;;26.10;95.80;;;;;;5036186;28;20455;-77
2023/06/15 10:19:12;;;;;;;6.20;3.20;;;26.70;95.90;;;;;;5040070;28;20718;-76
2023/06/15 10:21:42;;;;;;;4.57;3.10;;;26.70;95.40;;;;;;5031023;28;23328;-77
2023/06/15 10:24:14;;;;;;;4.53;3.03;;;26.10;94.80;;;;;;5034812;28;20044;-77
2023/06/15 10:26:40;;;;;;;5.90;3.10;;;26.10;96.50;;;;;;5034162;28;20132;-77
2023/06/15 10:29:12;;;;;;;6.25;2.85;;;26.80;95.10;;;;;;5030251;28;20038;-77
2023/06/15 10:32:07;;;;;;;8.10;3.10;;;26.20;93.60;;;;;;5028802;28;20036;-77
2023/06/15 10:34:45;;;;;;;5.65;3.08;;;26.10;94.80;;;;;;5033187;28;20038;-76
2023/06/15 10:37:26;;;;;;;7.90;3.97;;;26.80;95.40;;;;;;5023473;28;20087;-77
2023/06/15 10:39:53;;;;;;;6.20;3.53;;;26.70;95.10;;;;;;5027501;28;20052;-77
2023/06/15 10:42:18;;;;;;;6.47;3.03;;;27.00;96.00;;;;;;5039811;28;20053;-77
2023/06/15 10:44:44;;;;;;;4.82;3.30;;;26.40;94.10;;;;;;5037534;28;20430;-77
2023/06/15 10:47:11;;;;;;;5.05;3.08;;;26.50;95.40;;;;;;5035614;28;20041;-77
2023/06/15 10:49:46;;;;;;;5.43;2.42;;;26.80;94.90;;;;;;5025520;28;20045;-76
2023/06/15 10:52:13;;;;;;;5.10;3.20;;;26.40;93.40;;;;;;5027876;28;20038;-77
2023/06/15 10:54:39;;;;;;;6.03;3.67;;;26.80;96.20;;;;;;5030705;28;20033;-77
2023/06/15 10:57:06;;;;;;;6.72;3.22;;;27.20;96.10;;;;;;5038953;28;20432;-77
2023/06/15 10:59:51;;;;;;;6.57;3.28;;;27.10;95.60;;;;;;5037019;28;20372;-77
2023/06/15 11:02:29;;;;;;;4.47;2.85;;;27.20;95.40;;;;;;5033941;28;20111;-77
2023/06/15 11:05:10;;;;;;;5.22;3.08;;;27.60;95.10;;;;;;5031414;28;20179;-77
2023/06/15 11:07:43;;;;;;;5.47;3.00;;;27.00;95.30;;;;;;5031496;28;20044;-77
2023/06/15 11:10:28;;;;;;;4.65;3.00;;;27.00;95.10;;;;;;5040831;28;20101;-77
2023/06/15 11:13:02;;;;;;;7.00;3.45;;;26.80;94.00;;;;;;5033611;28;20132;-77
2023/06/15 11:15:35;;;;;;;4.60;2.85;;;26.80;94.90;;;;;;5034019;28;20136;-77
2023/06/15 11:18:12;;;;;;;5.10;2.92;;;26.90;94.60;;;;;;5036101;28;20033;-76
2023/06/15 11:20:38;;;;;;;7.30;3.10;;;26.80;95.40;;;;;;5037579;28;20475;-76
2023/06/15 11:23:11;;;;;;;4.97;2.92;;;26.90;95.50;;;;;;5033239;28;20047;-77
2023/06/15 11:25:41;;;;;;;6.13;3.00;;;26.90;94.30;;;;;;5028905;28;20596;-77
2023/06/15 11:28:09;;;;;;;5.00;2.97;;;27.10;94.10;;;;;;5037090;28;20040;-77
2023/06/15 11:30:37;;;;;;;4.53;3.03;;;27.10;94.10;;;;;;5047201;28;20043;-77
2023/06/15 11:33:03;;;;;;;5.88;3.33;;;27.00;93.00;;;;;;5036390;28;20095;-77
2023/06/15 11:35:30;;;;;;;6.65;3.20;;;26.80;93.90;;;;;;5032942;28;20037;-76
2023/06/15 11:37:57;;;;;;;6.70;3.00;;;26.70;94.40;;;;;;5044402;28;20041;-77
2023/06/15 11:40:23;;;;;;;6.88;3.00;;;26.60;94.50;;;;;;5037050;28;20058;-77
2023/06/15 11:42:50;;;;;;;4.45;2.70;;;26.70;94.60;;;;;;5035032;28;20052;-76
2023/06/15 11:45:19;;;;;;;4.53;2.50;;;26.60;94.60;;;;;;5035177;28;20353;-77
2023/06/15 11:47:47;;;;;;;6.45;3.03;;;26.60;94.80;;;;;;5033347;28;20068;-77
2023/06/15 11:50:20;;;;;;;4.95;2.97;;;26.50;94.90;;;;;;5038561;28;20108;-76
2023/06/15 11:52:46;;;;;;;5.88;2.70;;;26.70;95.10;;;;;;5034371;28;20045;-76
2023/06/15 11:55:14;;;;;;;4.20;2.67;;;26.40;95.10;;;;;;5024460;28;20034;-77
2023/06/15 11:57:42;;;;;;;5.00;3.10;;;26.50;94.90;;;;;;5029721;28;20029;-77
2023/06/15 12:00:10;;;;;;;5.05;2.78;;;26.60;95.40;;;;;;5037061;28;20103;-77
2023/06/15 12:02:37;;;;;;;7.97;3.25;;;26.40;94.30;;;;;;5027911;28;20049;-77
2023/06/15 12:05:03;;;;;;;5.25;2.92;;;26.40;95.30;;;;;;5023675;28;20574;-77
2023/06/15 12:07:35;;;;;;;6.30;3.10;;;26.90;94.70;;;;;;5029625;28;20045;-77
2023/06/15 12:10:03;;;;;;;6.72;3.10;;;26.70;94.90;;;;;;5027185;28;20115;-76
2023/06/15 12:12:32;;;;;;;6.28;2.85;;;26.60;95.10;;;;;;5031983;28;20344;-77
2023/06/15 12:15:02;;;;;;;4.35;2.92;;;26.70;94.50;;;;;;5034892;28;20045;-83
2023/06/15 12:17:33;;;;;;;4.70;2.75;;;26.70;94.90;;;;;;5038804;28;20565;-79
2023/06/15 12:20:09;;;;;;;5.07;3.33;;;26.90;94.20;;;;;;5043084;28;20040;-78
2023/06/15 12:22:46;;;;;;;5.78;2.63;;;27.10;93.80;;;;;;5050847;28;20048;-78
2023/06/15 12:25:13;;;;;;;5.18;2.15;;;27.30;93.60;;;;;;5048133;28;20036;-80
2023/06/15 12:27:42;;;;;;;4.93;2.70;;;27.40;92.80;;;;;;5047583;28;20126;-78
2023/06/15 12:30:26;;;;;;;4.05;2.35;;;27.60;92.00;;;;;;5050424;28;20035;-79
2023/06/15 12:32:52;;;;;;;5.85;2.60;;;27.80;90.60;;;;;;5047413;28;20091;-79
2023/06/15 12:35:29;;;;;;;7.07;2.80;;;27.90;90.10;;;;;;5041100;28;20040;-79
2023/06/15 12:37:56;;;;;;;4.93;2.75;;;28.20;87.50;;;;;;5030526;28;20129;-80
2023/06/15 12:40:22;;;;;;;4.35;2.65;;;28.00;91.00;;;;;;5031037;28;20098;-78
2023/06/15 12:43:01;;;;;;;4.57;2.53;;;27.80;91.30;;;;;;5030517;28;20053;-78
2023/06/15 12:45:27;;;;;;;4.88;2.67;;;27.90;91.00;;;;;;5032316;28;20045;-78
2023/06/15 12:47:53;;;;;;;4.53;2.67;;;28.00;90.00;;;;;;5025065;28;20040;-78
2023/06/15 12:50:19;;;;;;;4.57;2.88;;;27.90;90.80;;;;;;5028986;28;20369;-78
2023/06/15 12:52:45;;;;;;;5.53;3.00;;;27.80;90.20;;;;;;5026944;28;20084;-78
2023/06/15 12:55:11;;;;;;;6.75;2.67;;;28.10;90.70;;;;;;5035639;28;20570;-78
2023/06/15 12:57:37;;;;;;;5.13;2.75;;;27.80;91.20;;;;;;5033512;28;20475;-78
2023/06/15 13:00:04;;;;;;;5.25;2.28;;;27.90;91.30;;;;;;5029230;28;20065;-79
2023/06/15 13:02:32;;;;;;;4.25;2.67;;;27.50;91.00;;;;;;5035257;28;20037;-77
2023/06/15 13:05:02;;;;;;;4.45;2.50;;;27.80;92.50;;;;;;5021614;28;20387;-78
2023/06/15 13:07:31;;;;;;;3.72;2.13;;;28.10;91.70;;;;;;5034864;28;20029;-78
2023/06/15 13:09:57;;;;;;;4.35;2.50;;;28.10;91.30;;;;;;5026359;28;20121;-78
2023/06/15 13:12:23;;;;;;;6.18;3.17;;;27.80;90.90;;;;;;5030636;28;20068;-78
2023/06/15 13:14:49;;;;;;;4.40;2.55;;;27.50;90.90;;;;;;5031785;28;20065;-78
2023/06/15 13:17:15;;;;;;;4.43;3.00;;;26.90;91.40;;;;;;5031492;28;20079;-78
2023/06/15 13:19:41;;;;;;;5.25;2.50;;;26.60;91.70;;;;;;5035949;28;20074;-78
2023/06/15 13:22:06;;;;;;;3.40;2.20;;;27.00;91.80;;;;;;5026081;28;20387;-78
2023/06/15 13:24:34;;;;;;;6.57;2.75;;;27.40;91.70;;;;;;5029066;28;20094;-78
2023/06/15 13:27:01;;;;;;;6.43;2.70;;;27.30;91.70;;;;;;5033382;28;20025;-78
2023/06/15 13:29:28;;;;;;;4.30;2.10;;;27.30;91.90;;;;;;5033200;28;20033;-78
2023/06/15 13:31:54;;;;;;;4.88;2.33;;;27.60;92.40;;;;;;5028240;28;20026;-78
2023/06/15 13:34:21;;;;;;;7.00;2.83;;;27.20;92.50;;;;;;5026776;28;20048;-78
2023/06/15 13:36:47;;;;;;;8.10;2.75;;;27.30;91.30;;;;;;5037018;28;20037;-78
2023/06/15 13:39:13;;;;;;;5.70;3.35;;;27.60;91.10;;;;;;5024018;28;20041;-78
2023/06/15 13:41:39;;;;;;;4.07;2.60;;;27.80;91.10;;;;;;5030323;28;20938;-81
2023/06/15 13:44:05;;;;;;;4.28;2.45;;;27.90;90.40;;;;;;5025583;28;20033;-76
2023/06/15 13:46:31;;;;;;;7.05;3.20;;;27.80;90.30;;;;;;5033882;28;20033;-77
2023/06/15 13:48:57;;;;;;;6.70;2.90;;;28.00;90.70;;;;;;5028858;28;20464;-75
2023/06/15 13:51:23;;;;;;;3.83;2.25;;;28.10;90.20;;;;;;5033837;28;20060;-78
2023/06/15 13:53:48;;;;;;;5.30;2.85;;;27.90;91.20;;;;;;5031888;28;20490;-77
2023/06/15 13:56:14;;;;;;;4.35;2.55;;;28.20;90.20;;;;;;5038106;28;20041;-77
2023/06/15 13:58:40;;;;;;;5.53;2.95;;;28.10;90.80;;;;;;5036030;28;20103;-77
2023/06/15 14:01:06;;;;;;;6.20;3.05;;;28.40;91.80;;;;;;5037795;28;20037;-77
2023/06/15 14:03:33;;;;;;;6.55;2.72;;;28.50;91.00;;;;;;5038888;28;20037;-77
2023/06/15 14:05:59;;;;;;;5.90;2.58;;;28.20;90.90;;;;;;5037375;28;20471;-77
2023/06/15 14:08:24;;;;;;;7.50;2.35;;;28.40;91.10;;;;;;5021013;28;20049;-76
2023/06/15 14:10:50;;;;;;;4.75;2.80;;;28.40;90.20;;;;;;5036207;28;20052;-77
2023/06/15 14:13:18;;;;;;;4.22;2.58;;;28.30;90.70;;;;;;5031814;28;20025;-77
2023/06/15 14:15:44;;;;;;;7.63;2.30;;;28.10;90.90;;;;;;5030339;28;20044;-77
2023/06/15 14:18:09;;;;;;;5.78;2.67;;;27.70;90.80;;;;;;5030313;28;20057;-77
2023/06/15 14:20:35;;;;;;;4.50;2.90;;;27.40;90.90;;;;;;5031373;28;20037;-77
2023/06/15 14:23:00;;;;;;;4.72;2.95;;;27.10;91.70;;;;;;5027639;28;20857;-77
2023/06/15 14:25:26;;;;;;;6.93;2.90;;;26.80;91.20;;;;;;5026913;28;20069;-77
2023/06/15 14:27:52;;;;;;;6.85;2.92;;;26.70;91.60;;;;;;5035243;28;20100;-77
2023/06/15 14:30:17;;;;;;;4.70;2.70;;;26.80;91.80;;;;;;5034965;28;20124;-77
2023/06/15 14:32:43;;;;;;;4.30;2.67;;;26.40;91.60;;;;;;5030756;28;20029;-77
2023/06/15 14:35:09;;;;;;;4.03;2.45;;;26.80;92.20;;;;;;5031854;28;20061;-76
2023/06/15 14:37:35;;;;;;;4.35;2.63;;;27.20;91.60;;;;;;5031862;28;20060;-77
2023/06/15 14:40:04;;;;;;;5.53;3.10;;;27.30;91.70;;;;;;5031845;28;20513;-77
2023/06/15 14:42:30;;;;;;;6.47;3.03;;;27.40;91.60;;;;;;5027067;28;20049;-77
2023/06/15 14:44:56;;;;;;;5.68;2.58;;;27.50;91.70;;;;;;5035348;28;20068;-77
2023/06/15 14:47:21;;;;;;;5.32;2.25;;;27.70;91.50;;;;;;5030994;28;20037;-77
2023/06/15 14:49:47;;;;;;;4.95;3.28;;;27.50;91.50;;;;;;5043137;28;20099;-77
2023/06/15 14:52:13;;;;;;;4.43;2.67;;;27.40;92.20;;;;;;5045067;28;20512;-77
2023/06/15 14:54:41;;;;;;;4.30;2.67;;;27.40;91.70;;;;;;5045784;28;20067;-77
2023/06/15 14:57:08;;;;;;;5.95;3.17;;;27.50;91.70;;;;;;5038918;28;20519;-77
2023/06/15 14:59:34;;;;;;;5.57;3.20;;;26.90;91.50;;;;;;5038752;28;20517;-77
2023/06/15 15:01:59;;;;;;;4.57;2.60;;;26.90;92.10;;;;;;5028388;28;20054;-77
2023/06/15 15:04:25;;;;;;;6.15;3.28;;;26.90;91.50;;;;;;5029977;28;20590;-77
2023/06/15 15:06:51;;;;;;;6.80;3.22;;;26.50;91.70;;;;;;5032924;28;20044;-77
2023/06/15 15:09:17;;;;;;;5.43;2.83;;;26.40;91.50;;;;;;5026798;28;20041;-77
2023/06/15 15:11:43;;;;;;;6.43;3.15;;;26.70;91.60;;;;;;5035071;28;20043;-77
2023/06/15 15:14:09;;;;;;;5.38;2.95;;;26.70;91.80;;;;;;5039496;28;20048;-77
2023/06/15 15:16:34;;;;;;;5.60;3.80;;;26.50;92.00;;;;;;5032049;28;20038;-77
2023/06/15 15:19:00;;;;;;;8.88;3.17;;;26.30;92.50;;;;;;5032747;28;20046;-77
2023/06/15 15:21:26;;;;;;;7.20;3.35;;;25.90;92.50;;;;;;5036809;28;20371;-77
2023/06/15 15:23:52;;;;;;;7.53;3.05;;;25.90;92.60;;;;;;5038107;28;20487;-76
2023/06/15 15:26:18;;;;;;;4.82;2.70;;;25.70;92.70;;;;;;5034238;28;20042;-77
2023/06/15 15:28:44;;;;;;;5.70;2.92;;;25.50;92.80;;;;;;5038749;28;20037;-77
2023/06/15 15:31:10;;;;;;;8.88;2.90;;;25.90;92.60;;;;;;5036890;28;20115;-77
2023/06/15 15:33:36;;;;;;;4.45;3.00;;;26.30;92.10;;;;;;5038523;28;20649;-77
2023/06/15 15:36:01;;;;;;;5.18;2.90;;;26.70;92.10;;;;;;5043988;28;20033;-77
2023/06/15 15:38:27;;;;;;;5.50;3.13;;;26.60;92.20;;;;;;5036054;28;20045;-76
2023/06/15 15:40:53;;;;;;;5.40;3.33;;;26.90;91.90;;;;;;5031962;28;20041;-76
2023/06/15 15:43:20;;;;;;;5.88;2.90;;;27.00;91.90;;;;;;5035535;28;20052;-77
2023/06/15 15:45:45;;;;;;;6.03;3.15;;;26.90;92.30;;;;;;5033307;28;20143;-77
2023/06/15 15:48:11;;;;;;;5.88;2.90;;;26.70;92.20;;;;;;5041073;28;20033;-77
2023/06/15 15:50:37;;;;;;;5.68;3.00;;;26.50;92.30;;;;;;5049157;28;20119;-77
2023/06/15 15:53:03;;;;;;;4.68;2.90;;;26.70;92.70;;;;;;5045628;28;20040;-77
2023/06/15 15:55:29;;;;;;;4.50;2.70;;;26.30;91.80;;;;;;5037614;28;20041;-77
2023/06/15 15:57:55;;;;;;;5.25;3.03;;;26.60;92.20;;;;;;5028693;28;20064;-77
2023/06/15 16:00:21;;;;;;;5.53;3.40;;;26.90;92.30;;;;;;5049007;28;20029;-77
2023/06/15 16:02:47;;;;;;;5.35;3.28;;;26.90;92.00;;;;;;5048637;28;20586;-77
2023/06/15 16:05:13;;;;;;;6.50;3.15;;;26.90;91.70;;;;;;5048743;28;20044;-77
2023/06/15 16:07:40;;;;;;;6.78;3.50;;;26.80;92.10;;;;;;5049746;28;20504;-77
2023/06/15 16:10:06;;;;;;;7.25;3.25;;;26.80;92.20;;;;;;5049327;28;20033;-77
2023/06/15 16:12:32;;;;;;;6.07;2.92;;;27.00;92.00;;;;;;5048678;28;20098;-77
2023/06/15 16:14:57;;;;;;;5.95;3.40;;;27.00;91.70;;;;;;5039488;28;20444;-77
2023/06/15 16:17:23;;;;;;;7.30;3.55;;;27.00;91.70;;;;;;5029535;28;20713;-77
2023/06/15 16:19:49;;;;;;;6.82;2.92;;;27.00;91.90;;;;;;5029178;28;20033;-77
2023/06/15 16:22:15;;;;;;;5.43;3.50;;;26.90;91.70;;;;;;5028605;28;20053;-77
2023/06/15 16:24:40;;;;;;;7.47;3.25;;;26.90;91.30;;;;;;5044703;28;20037;-77
2023/06/15 16:27:07;;;;;;;6.65;2.75;;;26.80;91.50;;;;;;5048198;28;20033;-77
2023/06/15 16:29:34;;;;;;;5.90;3.25;;;26.70;92.10;;;;;;5048090;28;20128;-77
2023/06/15 16:31:59;;;;;;;6.88;2.78;;;26.80;92.10;;;;;;5049149;28;20112;-77
2023/06/15 16:34:25;;;;;;;4.40;3.03;;;26.70;91.70;;;;;;5047839;28;20179;-78
2023/06/15 16:36:51;;;;;;;4.05;2.88;;;26.30;92.10;;;;;;5048292;28;20675;-77
2023/06/15 16:39:46;;;;;;;9.48;3.45;;;25.80;92.30;;;;;;5045963;28;20047;-78
2023/06/15 16:42:13;;;;;;;8.50;3.45;;;26.00;92.70;;;;;;5047454;28;20052;-78
2023/06/15 16:44:39;;;;;;;4.78;2.95;;;26.20;92.30;;;;;;5046864;28;20186;-77
2023/06/15 16:47:05;;;;;;;5.07;3.10;;;25.90;92.10;;;;;;5048434;28;20044;-77
2023/06/15 16:49:39;;;;;;;4.45;2.83;;;25.60;92.00;;;;;;5047684;28;20083;-77
2023/06/15 16:52:05;;;;;;;;;;;25.50;92.30;;;;;;5046684;28;20033;-77
2023/06/15 16:54:31;;;;;;;5.10;2.90;;;25.40;92.30;;;;;;5039944;28;20004;-77
2023/06/15 16:56:57;;;;;;;6.60;3.42;;;25.10;92.00;;;;;;5027161;28;20116;-77
2023/06/15 16:59:22;;;;;;;5.90;3.45;;;25.00;92.10;;;;;;5030491;28;20033;-77
2023/06/15 17:01:48;;;;;;;6.45;2.80;;;25.30;92.30;;;;;;5039882;28;20045;-77
2023/06/15 17:04:15;;;;;;;5.28;3.13;;;25.60;92.30;;;;;;5023993;28;20528;-77
2023/06/15 17:06:40;;;;;;;4.45;2.92;;;25.60;92.50;;;;;;5039165;28;20035;-77
2023/06/15 17:09:06;;;;;;;7.03;2.72;;;25.70;92.30;;;;;;5033690;28;20104;-77
2023/06/15 17:11:31;;;;;;;5.93;3.50;;;25.60;92.30;;;;;;5037444;28;20086;-77
2023/06/15 17:13:57;;;;;;;10.38;3.30;;;25.70;91.60;;;;;;5026570;28;20045;-78
2023/06/15 17:16:23;;;;;;;5.85;3.08;;;25.70;92.10;;;;;;5031501;28;20048;-78
2023/06/15 17:18:48;;;;;;;4.25;2.90;;;25.30;92.10;;;;;;5029915;28;20060;-77
2023/06/15 17:21:14;;;;;;;6.28;2.90;;;24.80;92.20;;;;;;5026340;28;20055;-77
2023/06/15 17:23:40;;;;;;;5.85;3.25;;;25.20;92.40;;;;;;5023983;28;20081;-77
2023/06/15 17:26:05;;;;;;;8.48;3.08;;;25.10;92.70;;;;;;5029326;28;20048;-77
2023/06/15 17:28:31;;;;;;;4.97;2.95;;;25.20;93.20;;;;;;5025321;28;20037;-77
2023/06/15 17:30:56;;;;;;;5.22;2.92;;;25.20;92.90;;;;;;5031051;28;20056;-77
2023/06/15 17:33:22;;;;;;;7.00;2.88;;;25.20;92.80;;;;;;5031738;28;20076;-77
2023/06/15 17:35:48;;;;;;;7.53;3.67;;;25.00;93.10;;;;;;5023310;28;20087;-77
2023/06/15 17:38:13;;;;;;;5.03;3.08;;;24.60;93.50;;;;;;5029503;28;20040;-78
2023/06/15 17:40:39;;;;;;;9.38;3.13;;;24.40;93.90;;;;;;5027033;28;20037;-77
2023/06/15 17:43:05;;;;;;;6.20;3.38;;;24.30;94.10;;;;;;5030261;28;20094;-78
2023/06/15 17:45:31;;;;;;;6.45;2.88;;;24.10;94.50;;;;;;5028630;28;20030;-77
2023/06/15 17:47:56;;;;;;;5.40;3.00;;;24.00;93.80;;;;;;5025852;28;20042;-77
2023/06/15 17:50:22;;;;;;;7.50;2.80;;;23.90;94.70;;;;;;5031612;28;20068;-77
2023/06/15 17:52:48;;;;;;;5.15;2.70;;;23.90;93.40;;;;;;5033307;28;20040;-77
2023/06/15 17:55:13;;;;;;;4.85;2.95;;;23.90;93.90;;;;;;5031059;28;20095;-77
2023/06/15 17:57:39;;;;;;;6.63;2.90;;;23.80;94.10;;;;;;5026283;28;20060;-77
2023/06/15 18:00:06;;;;;;;6.30;2.95;;;23.40;93.60;;;;;;5025034;28;20125;-78
2023/06/15 18:02:32;;;;;;;5.45;3.15;;;23.50;93.60;;;;;;5024861;28;20569;-77
2023/06/15 18:04:59;;;;;;;6.55;3.33;;;23.30;93.90;;;;;;5033226;28;20064;-77
2023/06/15 18:07:25;;;;;;;5.78;3.17;;;23.30;93.90;;;;;;5025867;28;20120;-77
2023/06/15 18:09:51;;;;;;;4.38;2.83;;;23.20;94.00;;;;;;5027480;28;20092;-77
2023/06/15 18:12:17;;;;;;;8.18;3.33;;;23.20;94.20;;;;;;5029520;28;20497;-78
2023/06/15 18:14:43;;;;;;;4.85;3.03;;;23.20;94.30;;;;;;5028972;28;20511;-77
2023/06/15 18:17:08;;;;;;;4.70;3.08;;;23.20;94.20;;;;;;5030751;28;20108;-77
2023/06/15 18:19:34;;;;;;;8.40;3.33;;;23.20;94.70;;;;;;5030711;28;20052;-77
2023/06/15 18:22:00;;;;;;;7.35;3.00;;;23.00;95.60;;;;;;5034532;28;20041;-77
2023/06/15 18:24:26;;;;;;;5.20;3.20;;;22.70;95.50;;;;;;5031535;28;20087;-77
2023/06/15 18:26:51;;;;;;;6.30;3.55;;;22.70;94.80;;;;;;5044629;28;20597;-78
2023/06/15 18:29:17;;;;;;;13.52;3.50;;;22.70;94.90;;;;;;5036049;28;20037;-78
2023/06/15 18:31:44;;;;;;;6.50;3.88;;;22.70;95.00;;;;;;5041740;28;20040;-78
2023/06/15 18:34:13;;;;;;;5.97;4.05;;;22.60;95.00;;;;;;5045864;28;20079;-78
2023/06/15 18:36:40;;;;;;;9.48;3.38;;;22.50;95.00;;;;;;5033323;28;20033;-78
2023/06/15 18:39:06;;;;;;;4.68;2.95;;;22.50;95.00;;;;;;5027792;28;20085;-77
2023/06/15 18:41:32;;;;;;;6.03;3.30;;;22.50;95.20;;;;;;5033532;28;20483;-77
2023/06/15 18:43:58;;;;;;;5.50;3.10;;;22.40;95.40;;;;;;5035449;28;20396;-77
2023/06/15 18:46:24;;;;;;;7.20;3.50;;;22.30;95.50;;;;;;5033628;28;20606;-77
2023/06/15 18:48:51;;;;;;;5.20;2.75;;;22.30;95.80;;;;;;5026372;28;20476;-78
2023/06/15 18:51:17;;;;;;;5.05;3.22;;;22.20;96.00;;;;;;5028499;28;20167;-78
2023/06/15 18:53:43;;;;;;;4.72;2.78;;;22.10;96.40;;;;;;5044906;28;20119;-78
2023/06/15 18:56:09;;;;;;;4.47;2.83;;;22.00;95.80;;;;;;5030267;28;20055;-78
2023/06/15 18:58:35;;;;;;;5.78;3.65;;;22.00;95.40;;;;;;5032933;28;20045;-78
2023/06/15 19:01:00;;;;;;;7.28;3.40;;;22.20;95.30;;;;;;5026233;28;20025;-77
2023/06/15 19:03:26;;;;;;;4.68;3.20;;;22.10;95.10;;;;;;5035979;28;20055;-79
2023/06/15 19:05:52;;;;;;;6.80;3.55;;;22.10;95.60;;;;;;5042140;28;20033;-78
2023/06/15 19:08:20;;;;;;;4.38;3.00;;;22.00;95.50;;;;;;5033857;28;20167;-78
2023/06/15 19:10:46;;;;;;;6.72;3.30;;;22.00;95.50;;;;;;5035292;28;20123;-78
2023/06/15 19:13:12;;;;;;;5.93;2.92;;;21.80;95.80;;;;;;5042432;28;20056;-78
2023/06/15 19:15:37;;;;;;;4.75;3.03;;;21.70;96.20;;;;;;5028999;28;20049;-78
2023/06/15 19:18:03;;;;;;;8.55;3.40;;;21.50;96.00;;;;;;5032496;28;20069;-78
2023/06/15 19:20:29;;;;;;;5.15;2.80;;;21.50;95.90;;;;;;5030601;28;20128;-78
2023/06/15 19:22:56;;;;;;;6.00;3.13;;;21.70;95.60;;;;;;5024400;28;20491;-78
2023/06/15 19:25:22;;;;;;;7.72;3.28;;;21.50;95.80;;;;;;5032414;28;20029;-79
2023/06/15 19:27:47;;;;;;;5.30;3.10;;;21.30;96.20;;;;;;5024955;28;20634;-76